Cochrane, Canada
Current Conditions -  °F | °C
As of 9:00 PM on Friday 24 Oct 2014 (Local Time) from CYBW Reporting Station
Overcast Overcast  
Wind Chill: 25°   Ceiling: 23000
Heat Index: 34°   Visibility: 9mi
Dew Point: 18°   Wind: 12mph
Humidity: 52%   Direction: 270°W
Pressure: 30"   Gusts: NA
Location:  51.2°N, 114.45°W
Report Text: CYBW 250300Z AUTO 27010KT 9SM SCT210 OVC230 01/M08 A3000 RMK SLP210
Loading
Personal Weather Stations






























Interactive Weather Map
Tropical Storm Tracking
New forecast layout! Learn more

10-Day Weather Forecast

Advertisements
Track Severe Weather on mobile